createdAt,value
2017-12-20T00:00:24.881Z,20.90
2017-12-20T00:02:53.034Z,18.92
2017-12-20T00:05:20.212Z,18.87
2017-12-20T00:07:47.455Z,17.87
2017-12-20T00:10:15.095Z,20.35
2017-12-20T00:12:41.682Z,23.60
2017-12-20T00:15:09.033Z,22.08
2017-12-20T00:17:36.962Z,20.77
2017-12-20T00:20:04.079Z,20.52
2017-12-20T00:22:31.498Z,20.40
2017-12-20T00:24:59.051Z,20.48
2017-12-20T00:27:26.200Z,24.15
2017-12-20T00:29:53.242Z,21.80
2017-12-20T00:32:21.019Z,21.00
2017-12-20T00:34:48.398Z,20.33
2017-12-20T00:37:15.258Z,17.55
2017-12-20T00:39:41.897Z,18.25
2017-12-20T00:42:08.795Z,18.12
2017-12-20T00:44:35.455Z,18.40
2017-12-20T00:47:02.434Z,17.83
2017-12-20T00:49:29.392Z,16.08
2017-12-20T00:51:56.935Z,17.02
2017-12-20T00:54:24.087Z,16.90
2017-12-20T00:57:05.602Z,17.05
2017-12-20T00:59:33.198Z,16.45
2017-12-20T01:01:59.997Z,16.77
2017-12-20T01:04:26.513Z,16.37
2017-12-20T01:06:53.518Z,14.13
2017-12-20T01:09:21.251Z,14.82
2017-12-20T01:11:48.500Z,14.02
2017-12-20T01:14:15.768Z,14.73
2017-12-20T01:16:42.506Z,14.20
2017-12-20T01:19:09.554Z,12.80
2017-12-20T01:21:36.699Z,12.15
2017-12-20T01:24:03.775Z,12.68
2017-12-20T01:26:31.655Z,12.27
2017-12-20T01:28:58.395Z,9.25
2017-12-20T01:31:25.195Z,12.23
2017-12-20T01:33:51.766Z,10.15
2017-12-20T01:36:18.295Z,11.65
2017-12-20T01:38:45.450Z,11.60
2017-12-20T01:41:12.131Z,10.35
2017-12-20T01:43:39.568Z,9.35
2017-12-20T01:46:07.237Z,11.63
2017-12-20T01:48:34.108Z,10.07
2017-12-20T01:51:01.894Z,9.20
2017-12-20T01:53:28.878Z,8.95
2017-12-20T01:55:55.698Z,9.30
2017-12-20T01:58:22.984Z,9.73
2017-12-20T02:00:49.963Z,7.07
2017-12-20T02:03:16.803Z,9.10
2017-12-20T02:05:43.631Z,9.07
2017-12-20T02:08:11.015Z,7.05
2017-12-20T02:10:37.731Z,8.55
2017-12-20T02:13:04.602Z,8.52
2017-12-20T02:15:31.462Z,7.85
2017-12-20T02:17:58.502Z,8.50
2017-12-20T02:20:25.482Z,7.53
2017-12-20T02:22:52.418Z,7.30
2017-12-20T02:25:19.686Z,6.53
2017-12-20T02:27:46.531Z,6.45
2017-12-20T02:30:13.183Z,7.25
2017-12-20T02:32:39.675Z,8.60
2017-12-20T02:35:06.505Z,8.10
2017-12-20T02:37:33.234Z,8.23
2017-12-20T02:40:00.955Z,9.68
2017-12-20T02:42:27.949Z,8.43
2017-12-20T02:44:55.770Z,7.68
2017-12-20T02:47:22.355Z,7.85
2017-12-20T02:49:50.698Z,8.50
2017-12-20T02:52:17.523Z,7.62
2017-12-20T02:54:44.169Z,7.72
2017-12-20T02:57:11.319Z,7.50
2017-12-20T02:59:38.219Z,8.77
2017-12-20T03:02:06.058Z,8.68
2017-12-20T03:04:33.135Z,8.60
2017-12-20T03:07:00.474Z,6.93
2017-12-20T03:09:27.405Z,8.00
2017-12-20T03:11:54.483Z,8.00
2017-12-20T03:14:21.039Z,7.10
2017-12-20T03:16:47.772Z,6.80
2017-12-20T03:19:14.842Z,8.32
2017-12-20T03:21:42.394Z,7.72
2017-12-20T03:24:09.171Z,8.40
2017-12-20T03:26:36.588Z,8.40
2017-12-20T03:29:03.860Z,8.10
2017-12-20T03:31:31.019Z,7.70
2017-12-20T03:33:57.851Z,7.65
2017-12-20T03:36:24.590Z,7.68
2017-12-20T03:38:51.019Z,7.72
2017-12-20T03:41:18.294Z,8.00
2017-12-20T03:43:45.021Z,8.32
2017-12-20T03:46:12.218Z,9.48
2017-12-20T03:48:40.400Z,6.72
2017-12-20T03:51:07.819Z,7.80
2017-12-20T03:53:34.899Z,8.98
2017-12-20T03:56:01.419Z,8.05
2017-12-20T03:58:28.250Z,8.20
2017-12-20T04:00:55.021Z,8.07
2017-12-20T04:03:22.062Z,8.35
2017-12-20T04:05:49.006Z,7.55
2017-12-20T04:08:16.285Z,8.93
2017-12-20T04:10:43.674Z,9.55
2017-12-20T04:13:11.932Z,8.90
2017-12-20T04:15:38.338Z,7.47
2017-12-20T04:18:05.202Z,8.80
2017-12-20T04:20:32.122Z,7.93
2017-12-20T04:22:59.075Z,8.68
2017-12-20T04:25:25.735Z,7.40
2017-12-20T04:27:52.614Z,8.73
2017-12-20T04:30:19.746Z,7.93
2017-12-20T04:32:46.978Z,8.00
2017-12-20T04:35:13.944Z,8.65
2017-12-20T04:37:40.510Z,7.80
2017-12-20T04:40:07.551Z,8.50
2017-12-20T04:42:34.503Z,8.30
2017-12-20T04:45:01.454Z,6.95
2017-12-20T04:47:28.261Z,7.43
2017-12-20T04:49:55.270Z,8.20
2017-12-20T04:52:22.562Z,7.12
2017-12-20T04:54:50.190Z,7.80
2017-12-20T04:57:16.966Z,7.20
2017-12-20T04:59:44.698Z,16.77
2017-12-20T05:02:11.710Z,14.60
2017-12-20T05:04:38.513Z,13.20
2017-12-20T05:09:58.052Z,7.40
2017-12-20T05:12:24.916Z,7.00
2017-12-20T05:14:52.335Z,7.15
2017-12-20T05:17:18.902Z,7.82
2017-12-20T05:19:45.724Z,7.65
2017-12-20T05:22:12.676Z,7.50
2017-12-20T05:24:39.675Z,7.75
2017-12-20T05:27:06.531Z,6.72
2017-12-20T05:29:33.684Z,6.60
2017-12-20T05:32:08.598Z,7.50
2017-12-20T05:34:35.606Z,7.10
2017-12-20T05:37:03.000Z,7.00
2017-12-20T05:39:29.435Z,6.40
2017-12-20T05:41:56.718Z,5.45
2017-12-20T05:44:23.424Z,7.62
2017-12-20T05:46:50.395Z,8.38
2017-12-20T05:49:16.791Z,7.80
2017-12-20T05:51:44.528Z,8.13
2017-12-20T05:54:11.094Z,6.82
2017-12-20T05:56:38.319Z,7.43
2017-12-20T05:59:05.191Z,7.55
2017-12-20T06:01:32.179Z,7.12
2017-12-20T06:03:58.872Z,8.25
2017-12-20T06:06:26.016Z,8.40
2017-12-20T06:08:53.170Z,8.23
2017-12-20T06:11:22.117Z,7.43
2017-12-20T06:13:49.045Z,7.93
2017-12-20T06:16:17.075Z,6.72
2017-12-20T06:18:43.679Z,7.30
2017-12-20T06:21:11.075Z,8.15
2017-12-20T06:23:37.726Z,7.55
2017-12-20T06:26:04.598Z,6.80
2017-12-20T06:28:31.105Z,8.25
2017-12-20T06:30:59.319Z,8.40
2017-12-20T06:33:25.821Z,8.32
2017-12-20T06:35:52.895Z,8.30
2017-12-20T06:38:19.670Z,8.15
2017-12-20T06:40:47.520Z,7.57
2017-12-20T06:43:14.562Z,8.00
2017-12-20T06:45:41.153Z,8.35
2017-12-20T06:48:10.861Z,10.00
2017-12-20T06:50:38.710Z,9.32
2017-12-20T06:53:05.646Z,7.93
2017-12-20T06:55:32.137Z,8.48
2017-12-20T06:57:58.739Z,9.60
2017-12-20T07:00:25.831Z,8.70
2017-12-20T07:02:53.188Z,8.27
2017-12-20T07:05:20.225Z,9.30
2017-12-20T07:07:48.101Z,8.70
2017-12-20T07:10:15.827Z,8.88
2017-12-20T07:12:42.919Z,8.55
2017-12-20T07:15:10.269Z,8.27
2017-12-20T07:17:37.890Z,7.70
2017-12-20T07:20:04.476Z,8.63
2017-12-20T07:22:31.324Z,8.02
2017-12-20T07:24:59.232Z,8.57
2017-12-20T07:27:25.926Z,8.60
2017-12-20T07:29:52.631Z,8.48
2017-12-20T07:32:19.746Z,9.43
2017-12-20T07:34:47.600Z,8.40
2017-12-20T07:37:14.413Z,8.90
2017-12-20T07:39:41.306Z,10.40
2017-12-20T07:42:08.193Z,10.40
2017-12-20T07:44:35.398Z,10.32
2017-12-20T07:47:02.447Z,10.90
2017-12-20T07:49:29.283Z,9.85
2017-12-20T07:51:56.535Z,23.60
2017-12-20T07:54:23.194Z,9.90
2017-12-20T07:56:49.813Z,10.75
2017-12-20T07:59:17.298Z,9.93
2017-12-20T08:01:44.294Z,10.02
2017-12-20T08:04:11.417Z,11.05
2017-12-20T08:06:38.667Z,11.35
2017-12-20T08:09:06.425Z,10.80
2017-12-20T08:11:33.379Z,10.20
2017-12-20T08:14:00.193Z,12.20
2017-12-20T08:16:26.759Z,12.23
2017-12-20T08:18:53.906Z,10.38
2017-12-20T08:21:20.952Z,11.50
2017-12-20T08:23:47.855Z,10.15
2017-12-20T08:26:15.454Z,11.05
2017-12-20T08:28:50.798Z,9.63
2017-12-20T08:31:17.777Z,10.68
2017-12-20T08:33:44.843Z,11.10
2017-12-20T08:36:12.086Z,9.15
2017-12-20T08:38:38.625Z,10.60
2017-12-20T08:41:05.570Z,10.80
2017-12-20T08:43:32.839Z,9.10
2017-12-20T08:46:00.260Z,10.60
2017-12-20T08:48:27.444Z,11.98
2017-12-20T08:50:54.504Z,10.70
2017-12-20T08:53:21.306Z,9.30
2017-12-20T08:55:48.174Z,10.23
2017-12-20T08:58:15.077Z,10.70
2017-12-20T09:00:42.914Z,10.25
2017-12-20T09:03:10.069Z,8.45
2017-12-20T09:05:36.820Z,10.65
2017-12-20T09:08:03.780Z,9.65
2017-12-20T09:10:30.698Z,10.60
2017-12-20T09:12:57.397Z,10.65
2017-12-20T09:15:25.124Z,11.20
2017-12-20T09:17:52.464Z,13.90
2017-12-20T09:20:19.983Z,13.15
2017-12-20T09:22:48.152Z,12.45
2017-12-20T09:25:15.502Z,12.90
2017-12-20T09:27:42.159Z,10.55
2017-12-20T09:30:09.741Z,11.50
2017-12-20T09:32:38.605Z,13.23
2017-12-20T09:35:06.979Z,12.23
2017-12-20T09:37:34.212Z,10.30
2017-12-20T09:40:01.019Z,11.95
2017-12-20T09:42:28.294Z,12.10
2017-12-20T09:44:55.483Z,10.50
2017-12-20T09:47:22.259Z,10.65
2017-12-20T09:49:49.286Z,10.27
2017-12-20T09:52:15.909Z,9.85
2017-12-20T09:54:42.814Z,10.18
2017-12-20T09:57:10.438Z,11.38
2017-12-20T09:59:37.253Z,10.40
2017-12-20T10:02:04.255Z,9.93
2017-12-20T10:04:31.302Z,11.32
2017-12-20T10:06:58.086Z,24.77
2017-12-20T10:09:25.712Z,11.50
2017-12-20T10:11:52.728Z,10.50
2017-12-20T10:14:20.116Z,10.00
2017-12-20T10:16:47.193Z,10.75
2017-12-20T10:19:14.609Z,10.93
2017-12-20T10:21:41.993Z,9.73
2017-12-20T10:24:09.027Z,10.23
2017-12-20T10:26:36.429Z,10.00
2017-12-20T10:29:03.475Z,10.90
2017-12-20T10:31:31.310Z,11.07
2017-12-20T10:33:57.987Z,9.88
2017-12-20T10:36:25.843Z,11.55
2017-12-20T10:38:53.058Z,12.13
2017-12-20T10:41:22.159Z,9.85
2017-12-20T10:43:49.086Z,11.63
2017-12-20T10:46:16.735Z,11.35
2017-12-20T10:48:43.370Z,12.88
2017-12-20T10:51:10.306Z,11.45
2017-12-20T10:53:37.270Z,10.60
2017-12-20T10:56:04.323Z,13.68
2017-12-20T10:58:31.076Z,11.52
2017-12-20T11:00:58.030Z,10.20
2017-12-20T11:03:25.182Z,10.77
2017-12-20T11:05:51.918Z,10.13
2017-12-20T11:08:18.970Z,9.13
2017-12-20T11:10:47.332Z,10.57
2017-12-20T11:13:14.498Z,10.25
2017-12-20T11:15:42.074Z,10.18
2017-12-20T11:18:08.858Z,11.05
2017-12-20T11:20:35.464Z,10.68
2017-12-20T11:23:02.343Z,10.45
2017-12-20T11:25:29.528Z,9.70
2017-12-20T11:27:56.725Z,9.60
2017-12-20T11:30:23.361Z,10.00
2017-12-20T11:32:50.196Z,12.00
2017-12-20T11:35:16.987Z,10.77
2017-12-20T11:37:44.512Z,9.18
2017-12-20T11:40:11.487Z,10.27
2017-12-20T11:42:38.130Z,9.48
2017-12-20T11:45:05.887Z,9.98
2017-12-20T11:47:32.329Z,10.32
2017-12-20T11:49:59.577Z,10.32
2017-12-20T11:52:26.718Z,10.35
2017-12-20T11:54:53.459Z,10.70
2017-12-20T11:57:20.668Z,9.60
2017-12-20T11:59:47.684Z,10.35
2017-12-20T12:02:14.951Z,9.75
2017-12-20T12:04:42.120Z,9.15
2017-12-20T12:07:09.555Z,9.20
2017-12-20T12:09:36.192Z,9.20
2017-12-20T12:12:02.835Z,9.15
2017-12-20T12:14:31.892Z,9.52
2017-12-20T12:16:58.342Z,8.80
2017-12-20T12:19:25.321Z,8.80
2017-12-20T12:21:59.247Z,8.05
2017-12-20T12:24:25.943Z,9.60
2017-12-20T12:26:52.932Z,12.15
2017-12-20T12:29:19.698Z,7.70
2017-12-20T12:31:46.463Z,9.57
2017-12-20T12:34:14.260Z,10.63
2017-12-20T12:36:41.376Z,8.48
2017-12-20T12:39:08.932Z,7.50
2017-12-20T12:41:36.168Z,8.02
2017-12-20T12:44:02.926Z,7.72
2017-12-20T12:46:33.742Z,7.32
2017-12-20T12:49:00.506Z,8.15
2017-12-20T12:51:27.550Z,11.60
2017-12-20T12:53:54.269Z,8.75
2017-12-20T12:56:20.826Z,10.63
2017-12-20T12:58:48.062Z,9.63
2017-12-20T13:01:14.671Z,7.97
2017-12-20T13:03:42.440Z,8.55
2017-12-20T13:06:09.823Z,10.18
2017-12-20T13:08:37.018Z,10.85
2017-12-20T13:11:04.990Z,10.40
2017-12-20T13:13:31.851Z,9.23
2017-12-20T13:16:01.703Z,9.88
2017-12-20T13:18:28.312Z,9.23
2017-12-20T13:20:55.252Z,9.82
2017-12-20T13:23:22.502Z,9.10
2017-12-20T13:25:50.368Z,9.60
2017-12-20T13:28:16.988Z,8.43
2017-12-20T13:30:44.446Z,7.97
2017-12-20T13:33:11.946Z,7.80
2017-12-20T13:35:41.370Z,8.05
2017-12-20T13:38:08.406Z,7.40
2017-12-20T13:40:35.859Z,12.37
2017-12-20T13:43:02.551Z,8.88
2017-12-20T13:45:29.726Z,7.50
2017-12-20T13:47:56.914Z,8.32
2017-12-20T13:50:24.025Z,9.13
2017-12-20T13:52:51.023Z,7.55
2017-12-20T13:55:18.044Z,7.03
2017-12-20T13:57:46.222Z,7.72
2017-12-20T14:00:12.885Z,7.90
2017-12-20T14:02:40.022Z,7.37
2017-12-20T14:05:06.768Z,7.82
2017-12-20T14:07:35.147Z,7.18
2017-12-20T14:10:02.034Z,7.20
2017-12-20T14:12:29.018Z,14.23
2017-12-20T14:14:56.831Z,7.87
2017-12-20T14:17:23.726Z,6.60
2017-12-20T14:19:51.283Z,7.57
2017-12-20T14:22:18.419Z,8.15
2017-12-20T14:24:45.094Z,7.05
2017-12-20T14:27:12.686Z,9.30
2017-12-20T14:29:39.634Z,8.20
2017-12-20T14:32:06.423Z,8.32
2017-12-20T14:34:33.380Z,8.50
2017-12-20T14:37:00.063Z,8.23
2017-12-20T14:39:26.983Z,9.23
2017-12-20T14:41:53.722Z,9.30
2017-12-20T14:44:21.991Z,7.60
2017-12-20T14:46:50.226Z,8.50
2017-12-20T14:49:17.335Z,9.10
2017-12-20T14:51:44.083Z,7.75
2017-12-20T14:54:11.138Z,8.00
2017-12-20T14:56:38.076Z,8.88
2017-12-20T14:59:05.081Z,9.00
2017-12-20T15:01:32.155Z,8.75
2017-12-20T15:03:58.566Z,9.20
2017-12-20T15:06:25.598Z,8.15
2017-12-20T15:08:53.115Z,8.45
2017-12-20T15:11:22.244Z,10.20
2017-12-20T15:13:48.680Z,9.80
2017-12-20T15:16:15.833Z,9.20
2017-12-20T15:18:42.817Z,10.70
2017-12-20T15:21:11.384Z,14.32
2017-12-20T15:23:38.022Z,14.80
2017-12-20T15:26:05.056Z,11.60
2017-12-20T15:28:31.738Z,12.88
2017-12-20T15:30:59.576Z,10.80
2017-12-20T15:33:26.198Z,14.57
2017-12-20T15:35:53.471Z,21.33
2017-12-20T15:38:22.278Z,17.30
2017-12-20T15:40:50.590Z,14.63
2017-12-20T15:43:17.752Z,10.85
2017-12-20T15:45:45.670Z,12.77
2017-12-20T15:48:12.586Z,12.20
2017-12-20T15:50:39.974Z,10.48
2017-12-20T15:53:06.779Z,11.55
2017-12-20T15:55:34.231Z,11.02
2017-12-20T15:58:02.025Z,13.30
2017-12-20T16:00:28.970Z,11.82
2017-12-20T16:02:56.283Z,12.30
2017-12-20T16:05:23.139Z,11.85
2017-12-20T16:07:50.533Z,12.40
2017-12-20T16:10:17.329Z,12.85
2017-12-20T16:12:48.963Z,11.80
2017-12-20T16:15:15.942Z,11.32
2017-12-20T16:17:43.471Z,12.13
2017-12-20T16:20:10.465Z,12.37
2017-12-20T16:22:38.110Z,10.45
2017-12-20T16:25:05.107Z,11.35
2017-12-20T16:27:34.290Z,11.18
2017-12-20T16:30:01.504Z,8.98
2017-12-20T16:32:28.141Z,15.27
2017-12-20T16:34:55.501Z,9.45
2017-12-20T16:37:22.054Z,10.95
2017-12-20T16:39:50.065Z,12.65
2017-12-20T16:42:17.198Z,13.98
2017-12-20T16:44:45.755Z,8.93
2017-12-20T16:47:12.819Z,8.23
2017-12-20T16:49:39.404Z,9.85
2017-12-20T16:52:08.399Z,9.07
2017-12-20T16:54:35.660Z,9.52
2017-12-20T16:57:03.847Z,9.75
2017-12-20T16:59:31.549Z,9.27
2017-12-20T17:01:58.435Z,8.38
2017-12-20T17:04:26.378Z,9.65
2017-12-20T17:06:53.546Z,10.77
2017-12-20T17:09:21.337Z,11.65
2017-12-20T17:11:48.283Z,10.68
2017-12-20T17:14:14.923Z,12.30
2017-12-20T17:16:43.579Z,13.35
2017-12-20T17:19:10.773Z,10.50
2017-12-20T17:21:37.280Z,10.75
2017-12-20T17:24:11.018Z,12.75
2017-12-20T17:26:39.271Z,11.48
2017-12-20T17:29:06.586Z,11.80
2017-12-20T17:31:40.724Z,12.27
2017-12-20T17:34:07.571Z,12.35
2017-12-20T17:36:34.367Z,11.50
2017-12-20T17:39:03.001Z,12.07
2017-12-20T17:41:30.103Z,12.98
2017-12-20T17:43:57.048Z,12.93
2017-12-20T17:46:24.238Z,13.23
2017-12-20T17:48:52.494Z,11.20
2017-12-20T17:51:19.011Z,13.48
2017-12-20T17:53:46.024Z,12.27
2017-12-20T17:56:13.039Z,11.75
2017-12-20T17:58:42.644Z,10.52
2017-12-20T18:01:09.593Z,14.30
2017-12-20T18:03:36.900Z,13.77
2017-12-20T18:06:04.458Z,12.52
2017-12-20T18:08:32.096Z,13.48
2017-12-20T18:10:59.757Z,16.62
2017-12-20T18:13:29.311Z,16.85
2017-12-20T18:15:56.528Z,15.63
2017-12-20T18:18:23.279Z,14.23
2017-12-20T18:20:51.084Z,14.30
2017-12-20T18:23:18.245Z,13.35
2017-12-20T18:25:44.739Z,13.82
2017-12-20T18:28:12.172Z,11.93
2017-12-20T18:30:39.277Z,17.40
2017-12-20T18:33:08.343Z,14.80
2017-12-20T18:35:35.946Z,14.20
2017-12-20T18:38:02.803Z,16.33
2017-12-20T18:40:29.667Z,14.35
2017-12-20T18:42:56.448Z,13.82
2017-12-20T18:45:23.724Z,14.02
2017-12-20T18:47:51.487Z,16.67
2017-12-20T18:50:18.649Z,14.75
2017-12-20T18:52:47.384Z,15.30
2017-12-20T18:55:14.239Z,13.00
2017-12-20T18:57:41.527Z,16.77
2017-12-20T19:00:09.347Z,15.05
2017-12-20T19:02:35.854Z,16.80
2017-12-20T19:05:03.673Z,16.60
2017-12-20T19:07:30.917Z,15.80
2017-12-20T19:09:58.011Z,14.73
2017-12-20T19:12:25.088Z,18.65
2017-12-20T19:14:53.175Z,16.42
2017-12-20T19:17:20.674Z,17.35
2017-12-20T19:19:47.921Z,17.10
2017-12-20T19:22:15.159Z,18.00
2017-12-20T19:24:42.530Z,17.65
2017-12-20T19:30:07.199Z,17.17
2017-12-20T19:32:34.282Z,16.60
2017-12-20T19:35:01.702Z,16.80
2017-12-20T19:37:29.291Z,16.60
2017-12-20T19:39:57.623Z,17.00
2017-12-20T19:42:24.203Z,16.55
2017-12-20T19:44:52.681Z,18.75
2017-12-20T19:47:20.018Z,17.95
2017-12-20T19:49:46.827Z,16.85
2017-12-20T19:52:15.118Z,16.60
2017-12-20T19:54:42.145Z,18.10
2017-12-20T19:57:10.034Z,16.17
2017-12-20T19:59:37.080Z,15.43
2017-12-20T20:02:04.632Z,17.48
2017-12-20T20:04:32.635Z,17.35
2017-12-20T20:07:00.760Z,15.60
2017-12-20T20:09:29.220Z,17.25
2017-12-20T20:11:56.917Z,16.48
2017-12-20T20:14:29.916Z,17.80
2017-12-20T20:16:57.954Z,17.33
2017-12-20T20:19:26.222Z,15.80
2017-12-20T20:21:54.487Z,15.07
2017-12-20T20:24:22.608Z,16.23
2017-12-20T20:26:52.948Z,15.30
2017-12-20T20:29:20.919Z,14.87
2017-12-20T20:31:48.376Z,15.32
2017-12-20T20:34:17.068Z,15.90
2017-12-20T20:36:45.745Z,14.48
2017-12-20T20:39:13.259Z,12.75
2017-12-20T20:41:40.982Z,11.90
2017-12-20T20:44:08.725Z,12.45
2017-12-20T20:46:36.518Z,13.43
2017-12-20T20:49:04.179Z,12.10
2017-12-20T20:51:31.914Z,11.23
2017-12-20T20:53:59.832Z,11.50
2017-12-20T20:56:28.416Z,12.68
2017-12-20T20:58:56.503Z,12.57
2017-12-20T21:01:24.216Z,13.35
2017-12-20T21:03:51.699Z,12.25
2017-12-20T21:06:19.335Z,11.68
2017-12-20T21:08:47.570Z,14.63
2017-12-20T21:11:14.814Z,14.48
2017-12-20T21:13:41.564Z,12.60
2017-12-20T21:16:15.811Z,13.93
2017-12-20T21:18:43.680Z,13.73
2017-12-20T21:21:11.422Z,13.13
2017-12-20T21:23:39.050Z,12.77
2017-12-20T21:26:06.054Z,14.57
2017-12-20T21:28:33.653Z,13.85
2017-12-20T21:31:00.602Z,15.68
2017-12-20T21:33:28.117Z,15.23
2017-12-20T21:35:56.033Z,16.55
2017-12-20T21:38:22.992Z,16.20
2017-12-20T21:40:49.871Z,16.45
2017-12-20T21:43:17.439Z,16.15
2017-12-20T21:45:44.832Z,15.52
2017-12-20T21:48:13.414Z,15.63
2017-12-20T21:50:41.026Z,15.48
2017-12-20T21:53:08.149Z,15.38
2017-12-20T21:55:36.341Z,14.65
2017-12-20T21:58:03.424Z,13.95
2017-12-20T22:00:30.538Z,16.55
2017-12-20T22:02:58.219Z,17.33
2017-12-20T22:05:25.636Z,16.55
2017-12-20T22:07:53.531Z,15.85
2017-12-20T22:10:21.438Z,15.02
2017-12-20T22:12:47.980Z,17.50
2017-12-20T22:15:15.236Z,15.32
2017-12-20T22:17:42.070Z,16.00
2017-12-20T22:20:09.094Z,16.92
2017-12-20T22:22:36.952Z,17.00
2017-12-20T22:25:04.176Z,15.27
2017-12-20T22:27:31.071Z,16.95
2017-12-20T22:29:58.603Z,16.42
2017-12-20T22:32:25.485Z,16.37
2017-12-20T22:34:53.422Z,16.80
2017-12-20T22:37:20.235Z,16.98
2017-12-20T22:39:48.666Z,14.50
2017-12-20T22:42:15.602Z,17.52
2017-12-20T22:44:42.493Z,14.68
2017-12-20T22:47:10.871Z,14.85
2017-12-20T22:49:38.626Z,14.70
2017-12-20T22:52:05.573Z,14.15
2017-12-20T22:54:32.622Z,15.27
2017-12-20T22:57:01.232Z,14.65
2017-12-20T22:59:28.589Z,14.90
2017-12-20T23:01:56.305Z,16.02
2017-12-20T23:04:24.610Z,16.87
2017-12-20T23:06:52.017Z,14.70
2017-12-20T23:09:25.922Z,16.37
2017-12-20T23:11:53.646Z,15.15
2017-12-20T23:14:23.238Z,14.20
2017-12-20T23:16:50.388Z,14.85
2017-12-20T23:19:17.168Z,16.65
2017-12-20T23:21:44.579Z,15.93
2017-12-20T23:24:11.223Z,16.37
2017-12-20T23:26:38.315Z,17.65
2017-12-20T23:29:05.194Z,15.15
2017-12-20T23:31:33.084Z,16.77
2017-12-20T23:34:00.042Z,16.85
2017-12-20T23:36:26.734Z,17.60
2017-12-20T23:38:53.472Z,15.85
2017-12-20T23:41:20.123Z,18.70
2017-12-20T23:43:47.122Z,16.77
2017-12-20T23:46:14.114Z,17.65
2017-12-20T23:48:41.122Z,17.37
2017-12-20T23:51:07.735Z,16.08
2017-12-20T23:53:35.315Z,16.75
2017-12-20T23:56:02.985Z,14.93
2017-12-20T23:58:30.611Z,17.25
